sensor_id;sensor_type;location;lat;lon;timestamp;temperature;humidity
39277;DHT22;63149;48.086;-1.606;2022-10-31T06:02:06;12.40;99.90
39277;DHT22;63149;48.086;-1.606;2022-10-31T06:04:32;12.40;99.90
39277;DHT22;63149;48.086;-1.606;2022-10-31T06:06:59;12.50;99.90
39277;DHT22;63149;48.086;-1.606;2022-10-31T06:09:26;12.50;99.90
39277;DHT22;63149;48.086;-1.606;2022-10-31T06:11:53;12.50;99.90
39277;DHT22;63149;48.086;-1.606;2022-10-31T06:14:19;12.50;99.90
39277;DHT22;63149;48.086;-1.606;2022-10-31T06:16:46;12.50;99.90
39277;DHT22;63149;48.086;-1.606;2022-10-31T06:19:14;12.50;99.90
39277;DHT22;63149;48.086;-1.606;2022-10-31T06:21:41;12.50;99.90
39277;DHT22;63149;48.086;-1.606;2022-10-31T06:24:07;12.50;99.90
39277;DHT22;63149;48.086;-1.606;2022-10-31T06:26:34;12.60;99.90
39277;DHT22;63149;48.086;-1.606;2022-10-31T06:29:01;12.60;99.90
39277;DHT22;63149;48.086;-1.606;2022-10-31T06:31:28;12.60;99.90
39277;DHT22;63149;48.086;-1.606;2022-10-31T06:33:54;12.60;99.90
39277;DHT22;63149;48.086;-1.606;2022-10-31T06:36:22;12.60;99.90
39277;DHT22;63149;48.086;-1.606;2022-10-31T06:38:49;12.60;99.90
39277;DHT22;63149;48.086;-1.606;2022-10-31T06:41:16;12.60;99.90
39277;DHT22;63149;48.086;-1.606;2022-10-31T06:43:44;12.60;99.90
39277;DHT22;63149;48.086;-1.606;2022-10-31T06:46:12;12.60;99.90
39277;DHT22;63149;48.086;-1.606;2022-10-31T06:48:39;12.60;99.90
39277;DHT22;63149;48.086;-1.606;2022-10-31T06:51:06;12.70;99.90
39277;DHT22;63149;48.086;-1.606;2022-10-31T06:53:34;12.70;99.90
39277;DHT22;63149;48.086;-1.606;2022-10-31T06:56:01;12.70;99.90
39277;DHT22;63149;48.086;-1.606;2022-10-31T06:58:28;12.70;99.90
39277;DHT22;63149;48.086;-1.606;2022-10-31T07:00:54;12.70;99.90
39277;DHT22;63149;48.086;-1.606;2022-10-31T07:03:21;12.70;99.90
39277;DHT22;63149;48.086;-1.606;2022-10-31T07:05:48;12.70;99.90
39277;DHT22;63149;48.086;-1.606;2022-10-31T07:08:14;12.70;99.90
39277;DHT22;63149;48.086;-1.606;2022-10-31T07:10:43;12.70;99.90
39277;DHT22;63149;48.086;-1.606;2022-10-31T07:13:10;12.80;99.90
39277;DHT22;63149;48.086;-1.606;2022-10-31T07:15:37;12.70;99.90
39277;DHT22;63149;48.086;-1.606;2022-10-31T07:18:05;12.80;99.90
39277;DHT22;63149;48.086;-1.606;2022-10-31T07:20:32;12.80;99.90
39277;DHT22;63149;48.086;-1.606;2022-10-31T07:22:59;12.80;99.90
39277;DHT22;63149;48.086;-1.606;2022-10-31T07:25:26;12.90;99.90
39277;DHT22;63149;48.086;-1.606;2022-10-31T07:27:55;12.90;99.90
39277;DHT22;63149;48.086;-1.606;2022-10-31T07:30:21;12.90;99.90
39277;DHT22;63149;48.086;-1.606;2022-10-31T07:32:49;12.90;99.90
39277;DHT22;63149;48.086;-1.606;2022-10-31T07:35:16;12.90;99.90
39277;DHT22;63149;48.086;-1.606;2022-10-31T07:37:43;13.00;99.90
39277;DHT22;63149;48.086;-1.606;2022-10-31T07:40:10;13.00;99.90
39277;DHT22;63149;48.086;-1.606;2022-10-31T07:42:38;13.00;99.90
39277;DHT22;63149;48.086;-1.606;2022-10-31T07:45:07;13.00;99.90
39277;DHT22;63149;48.086;-1.606;2022-10-31T07:47:37;13.10;99.90
39277;DHT22;63149;48.086;-1.606;2022-10-31T07:50:04;13.10;99.90
39277;DHT22;63149;48.086;-1.606;2022-10-31T07:52:31;13.10;99.90
39277;DHT22;63149;48.086;-1.606;2022-10-31T07:54:58;13.10;99.90
39277;DHT22;63149;48.086;-1.606;2022-10-31T07:57:25;13.10;99.90
39277;DHT22;63149;48.086;-1.606;2022-10-31T07:59:51;13.20;99.90
39277;DHT22;63149;48.086;-1.606;2022-10-31T08:02:19;13.20;99.90
39277;DHT22;63149;48.086;-1.606;2022-10-31T08:04:46;13.20;99.90
39277;DHT22;63149;48.086;-1.606;2022-10-31T08:07:13;13.30;99.90
39277;DHT22;63149;48.086;-1.606;2022-10-31T08:09:40;13.30;99.90
39277;DHT22;63149;48.086;-1.606;2022-10-31T08:12:06;13.30;99.90
39277;DHT22;63149;48.086;-1.606;2022-10-31T08:14:33;13.30;99.90
39277;DHT22;63149;48.086;-1.606;2022-10-31T08:17:00;13.40;99.90
39277;DHT22;63149;48.086;-1.606;2022-10-31T08:19:28;13.40;99.90
39277;DHT22;63149;48.086;-1.606;2022-10-31T08:21:55;13.40;99.90
39277;DHT22;63149;48.086;-1.606;2022-10-31T08:24:21;13.50;99.90
39277;DHT22;63149;48.086;-1.606;2022-10-31T08:26:48;13.40;99.90
39277;DHT22;63149;48.086;-1.606;2022-10-31T08:29:15;13.40;99.90
39277;DHT22;63149;48.086;-1.606;2022-10-31T08:31:42;13.50;99.90
39277;DHT22;63149;48.086;-1.606;2022-10-31T08:34:08;13.50;99.90
39277;DHT22;63149;48.086;-1.606;2022-10-31T08:36:36;13.50;99.90
39277;DHT22;63149;48.086;-1.606;2022-10-31T08:39:03;13.50;99.90
39277;DHT22;63149;48.086;-1.606;2022-10-31T08:41:30;13.50;99.90
39277;DHT22;63149;48.086;-1.606;2022-10-31T08:43:56;13.60;99.90
39277;DHT22;63149;48.086;-1.606;2022-10-31T08:46:23;13.60;99.90
39277;DHT22;63149;48.086;-1.606;2022-10-31T08:48:50;13.60;99.90
39277;DHT22;63149;48.086;-1.606;2022-10-31T08:51:17;13.60;99.90
39277;DHT22;63149;48.086;-1.606;2022-10-31T08:53:45;13.60;99.90
39277;DHT22;63149;48.086;-1.606;2022-10-31T08:56:12;13.70;99.90
39277;DHT22;63149;48.086;-1.606;2022-10-31T08:58:38;13.60;99.90
39277;DHT22;63149;48.086;-1.606;2022-10-31T09:01:05;13.70;99.90
39277;DHT22;63149;48.086;-1.606;2022-10-31T09:03:32;13.70;99.90
39277;DHT22;63149;48.086;-1.606;2022-10-31T09:05:59;13.70;99.90
39277;DHT22;63149;48.086;-1.606;2022-10-31T09:08:28;13.70;99.90
39277;DHT22;63149;48.086;-1.606;2022-10-31T09:10:57;13.70;99.90
39277;DHT22;63149;48.086;-1.606;2022-10-31T09:13:24;13.70;99.90
39277;DHT22;63149;48.086;-1.606;2022-10-31T09:15:50;13.70;99.90
39277;DHT22;63149;48.086;-1.606;2022-10-31T09:18:18;13.80;99.90
39277;DHT22;63149;48.086;-1.606;2022-10-31T09:20:45;13.80;99.90
39277;DHT22;63149;48.086;-1.606;2022-10-31T09:23:13;13.80;99.90
39277;DHT22;63149;48.086;-1.606;2022-10-31T09:25:40;13.80;99.90
39277;DHT22;63149;48.086;-1.606;2022-10-31T09:28:09;13.80;99.90
39277;DHT22;63149;48.086;-1.606;2022-10-31T09:30:36;13.80;99.90
39277;DHT22;63149;48.086;-1.606;2022-10-31T09:33:04;13.80;99.90
39277;DHT22;63149;48.086;-1.606;2022-10-31T09:35:30;13.90;99.90
39277;DHT22;63149;48.086;-1.606;2022-10-31T09:37:58;13.90;99.90
39277;DHT22;63149;48.086;-1.606;2022-10-31T09:40:25;13.90;99.90
39277;DHT22;63149;48.086;-1.606;2022-10-31T09:42:55;13.90;99.90
39277;DHT22;63149;48.086;-1.606;2022-10-31T09:45:26;13.90;99.90
39277;DHT22;63149;48.086;-1.606;2022-10-31T09:48:02;13.90;99.90
39277;DHT22;63149;48.086;-1.606;2022-10-31T09:50:32;13.90;99.90
39277;DHT22;63149;48.086;-1.606;2022-10-31T09:53:03;14.00;99.90
39277;DHT22;63149;48.086;-1.606;2022-10-31T09:55:34;14.00;99.90
39277;DHT22;63149;48.086;-1.606;2022-10-31T09:58:01;14.00;99.90
39277;DHT22;63149;48.086;-1.606;2022-10-31T10:00:29;14.00;99.90
39277;DHT22;63149;48.086;-1.606;2022-10-31T10:02:59;14.10;99.90
39277;DHT22;63149;48.086;-1.606;2022-10-31T10:05:29;14.10;99.90
39277;DHT22;63149;48.086;-1.606;2022-10-31T10:08:00;14.10;99.90
39277;DHT22;63149;48.086;-1.606;2022-10-31T10:10:31;14.20;99.90
39277;DHT22;63149;48.086;-1.606;2022-10-31T10:13:13;14.20;99.90
39277;DHT22;63149;48.086;-1.606;2022-10-31T10:15:48;14.30;99.90
39277;DHT22;63149;48.086;-1.606;2022-10-31T10:18:20;14.30;99.90
39277;DHT22;63149;48.086;-1.606;2022-10-31T10:20:54;14.40;99.90
39277;DHT22;63149;48.086;-1.606;2022-10-31T10:23:32;14.40;99.90
39277;DHT22;63149;48.086;-1.606;2022-10-31T10:26:04;14.40;99.90
39277;DHT22;63149;48.086;-1.606;2022-10-31T10:28:32;14.50;99.90
39277;DHT22;63149;48.086;-1.606;2022-10-31T10:31:05;14.50;99.90
39277;DHT22;63149;48.086;-1.606;2022-10-31T10:33:33;14.50;99.90
39277;DHT22;63149;48.086;-1.606;2022-10-31T10:36:03;14.60;99.90
39277;DHT22;63149;48.086;-1.606;2022-10-31T10:38:33;14.70;99.90
39277;DHT22;63149;48.086;-1.606;2022-10-31T10:41:00;14.70;99.90
39277;DHT22;63149;48.086;-1.606;2022-10-31T10:43:29;14.80;99.90
39277;DHT22;63149;48.086;-1.606;2022-10-31T10:48:58;14.90;99.90
39277;DHT22;63149;48.086;-1.606;2022-10-31T10:51:28;14.90;99.90
39277;DHT22;63149;48.086;-1.606;2022-10-31T10:54:02;15.00;99.90
39277;DHT22;63149;48.086;-1.606;2022-10-31T10:56:51;15.10;99.90
39277;DHT22;63149;48.086;-1.606;2022-10-31T10:59:21;15.20;99.90
39277;DHT22;63149;48.086;-1.606;2022-10-31T11:01:48;15.20;99.90
39277;DHT22;63149;48.086;-1.606;2022-10-31T11:07:00;15.20;99.90
39277;DHT22;63149;48.086;-1.606;2022-10-31T11:09:27;15.30;99.90
39277;DHT22;63149;48.086;-1.606;2022-10-31T11:11:53;15.30;99.90
39277;DHT22;63149;48.086;-1.606;2022-10-31T11:14:21;15.30;99.90
39277;DHT22;63149;48.086;-1.606;2022-10-31T11:16:48;15.30;99.90
39277;DHT22;63149;48.086;-1.606;2022-10-31T11:19:16;15.40;99.90
39277;DHT22;63149;48.086;-1.606;2022-10-31T11:21:43;15.40;99.90
39277;DHT22;63149;48.086;-1.606;2022-10-31T11:24:14;15.40;99.90
39277;DHT22;63149;48.086;-1.606;2022-10-31T11:26:43;15.30;99.90
39277;DHT22;63149;48.086;-1.606;2022-10-31T11:29:12;15.40;99.90
39277;DHT22;63149;48.086;-1.606;2022-10-31T11:31:40;15.30;99.90
39277;DHT22;63149;48.086;-1.606;2022-10-31T11:34:11;15.40;99.90
39277;DHT22;63149;48.086;-1.606;2022-10-31T11:36:39;15.40;99.90
39277;DHT22;63149;48.086;-1.606;2022-10-31T11:39:14;15.40;99.90
39277;DHT22;63149;48.086;-1.606;2022-10-31T11:41:41;15.40;99.90
39277;DHT22;63149;48.086;-1.606;2022-10-31T11:44:11;15.40;99.90
39277;DHT22;63149;48.086;-1.606;2022-10-31T11:46:39;15.40;99.90
39277;DHT22;63149;48.086;-1.606;2022-10-31T11:49:11;15.40;99.90
39277;DHT22;63149;48.086;-1.606;2022-10-31T11:51:39;15.40;99.90
39277;DHT22;63149;48.086;-1.606;2022-10-31T11:54:06;15.40;99.90
39277;DHT22;63149;48.086;-1.606;2022-10-31T11:56:45;15.40;99.90
39277;DHT22;63149;48.086;-1.606;2022-10-31T11:59:17;15.40;99.90
39277;DHT22;63149;48.086;-1.606;2022-10-31T12:01:46;15.40;99.90
39277;DHT22;63149;48.086;-1.606;2022-10-31T12:04:13;15.40;99.90
39277;DHT22;63149;48.086;-1.606;2022-10-31T12:06:41;15.50;99.90
39277;DHT22;63149;48.086;-1.606;2022-10-31T12:09:13;15.50;99.90
39277;DHT22;63149;48.086;-1.606;2022-10-31T12:11:45;15.50;99.90
39277;DHT22;63149;48.086;-1.606;2022-10-31T12:14:19;15.50;99.90
39277;DHT22;63149;48.086;-1.606;2022-10-31T12:16:49;15.60;99.90
39277;DHT22;63149;48.086;-1.606;2022-10-31T12:19:18;15.60;99.90
39277;DHT22;63149;48.086;-1.606;2022-10-31T12:21:55;15.60;99.90
39277;DHT22;63149;48.086;-1.606;2022-10-31T12:24:28;15.70;99.90
39277;DHT22;63149;48.086;-1.606;2022-10-31T12:26:59;15.70;99.90
39277;DHT22;63149;48.086;-1.606;2022-10-31T12:29:34;15.70;99.90
39277;DHT22;63149;48.086;-1.606;2022-10-31T12:32:21;15.80;99.90
39277;DHT22;63149;48.086;-1.606;2022-10-31T12:34:54;15.80;99.90
39277;DHT22;63149;48.086;-1.606;2022-10-31T12:37:28;15.90;99.90
39277;DHT22;63149;48.086;-1.606;2022-10-31T12:40:01;15.90;99.90
39277;DHT22;63149;48.086;-1.606;2022-10-31T12:42:34;15.90;99.90
39277;DHT22;63149;48.086;-1.606;2022-10-31T12:45:10;16.00;99.90
39277;DHT22;63149;48.086;-1.606;2022-10-31T12:47:44;16.00;99.90
39277;DHT22;63149;48.086;-1.606;2022-10-31T12:50:16;16.10;99.90
39277;DHT22;63149;48.086;-1.606;2022-10-31T12:52:50;16.10;99.90
39277;DHT22;63149;48.086;-1.606;2022-10-31T12:55:31;16.20;99.90
39277;DHT22;63149;48.086;-1.606;2022-10-31T12:58:01;16.20;99.90
39277;DHT22;63149;48.086;-1.606;2022-10-31T13:00:31;16.20;99.90
39277;DHT22;63149;48.086;-1.606;2022-10-31T13:03:01;16.30;99.90
39277;DHT22;63149;48.086;-1.606;2022-10-31T13:05:30;16.30;99.90
39277;DHT22;63149;48.086;-1.606;2022-10-31T13:08:00;16.30;99.90
39277;DHT22;63149;48.086;-1.606;2022-10-31T13:10:29;16.30;99.90
39277;DHT22;63149;48.086;-1.606;2022-10-31T13:12:57;16.40;99.90
39277;DHT22;63149;48.086;-1.606;2022-10-31T13:15:27;16.40;99.90
39277;DHT22;63149;48.086;-1.606;2022-10-31T13:17:57;16.40;99.90
39277;DHT22;63149;48.086;-1.606;2022-10-31T13:20:26;16.50;99.90
39277;DHT22;63149;48.086;-1.606;2022-10-31T13:22:56;16.50;99.90
39277;DHT22;63149;48.086;-1.606;2022-10-31T13:25:27;16.50;99.90
39277;DHT22;63149;48.086;-1.606;2022-10-31T13:27:56;16.60;99.90
39277;DHT22;63149;48.086;-1.606;2022-10-31T13:30:24;16.60;99.90
39277;DHT22;63149;48.086;-1.606;2022-10-31T13:32:54;16.60;99.90
39277;DHT22;63149;48.086;-1.606;2022-10-31T13:35:25;16.60;99.90
39277;DHT22;63149;48.086;-1.606;2022-10-31T13:37:57;16.70;99.90
39277;DHT22;63149;48.086;-1.606;2022-10-31T13:40:31;16.70;99.90
39277;DHT22;63149;48.086;-1.606;2022-10-31T13:43:02;16.70;99.90
39277;DHT22;63149;48.086;-1.606;2022-10-31T13:45:31;16.80;99.90
39277;DHT22;63149;48.086;-1.606;2022-10-31T13:47:58;16.80;99.90
39277;DHT22;63149;48.086;-1.606;2022-10-31T13:50:27;16.80;99.90
39277;DHT22;63149;48.086;-1.606;2022-10-31T13:53:03;16.90;99.90
39277;DHT22;63149;48.086;-1.606;2022-10-31T13:55:36;16.90;99.90
39277;DHT22;63149;48.086;-1.606;2022-10-31T13:58:03;16.90;99.90
39277;DHT22;63149;48.086;-1.606;2022-10-31T14:00:31;16.90;99.90
39277;DHT22;63149;48.086;-1.606;2022-10-31T14:03:00;16.90;99.90
39277;DHT22;63149;48.086;-1.606;2022-10-31T14:05:29;17.00;99.90
39277;DHT22;63149;48.086;-1.606;2022-10-31T14:07:57;17.00;99.90
39277;DHT22;63149;48.086;-1.606;2022-10-31T14:10:25;17.00;99.90
39277;DHT22;63149;48.086;-1.606;2022-10-31T14:12:53;17.00;99.90
39277;DHT22;63149;48.086;-1.606;2022-10-31T14:15:28;16.90;99.90
39277;DHT22;63149;48.086;-1.606;2022-10-31T14:17:56;17.00;99.90
39277;DHT22;63149;48.086;-1.606;2022-10-31T14:20:32;17.00;99.90
39277;DHT22;63149;48.086;-1.606;2022-10-31T14:23:10;17.00;99.90
39277;DHT22;63149;48.086;-1.606;2022-10-31T14:25:37;17.00;99.90
39277;DHT22;63149;48.086;-1.606;2022-10-31T14:28:17;17.00;99.90
39277;DHT22;63149;48.086;-1.606;2022-10-31T14:30:50;17.00;99.90
39277;DHT22;63149;48.086;-1.606;2022-10-31T14:33:18;17.00;99.90
39277;DHT22;63149;48.086;-1.606;2022-10-31T14:35:51;17.00;99.90
39277;DHT22;63149;48.086;-1.606;2022-10-31T14:38:21;17.10;99.90
39277;DHT22;63149;48.086;-1.606;2022-10-31T14:40:52;17.00;99.90
39277;DHT22;63149;48.086;-1.606;2022-10-31T14:46:06;17.00;99.90
39277;DHT22;63149;48.086;-1.606;2022-10-31T14:51:35;17.00;99.90
39277;DHT22;63149;48.086;-1.606;2022-10-31T14:54:03;17.00;99.90
39277;DHT22;63149;48.086;-1.606;2022-10-31T14:56:32;17.00;99.90
39277;DHT22;63149;48.086;-1.606;2022-10-31T14:58:59;17.00;99.90
39277;DHT22;63149;48.086;-1.606;2022-10-31T15:01:27;17.00;99.90
39277;DHT22;63149;48.086;-1.606;2022-10-31T15:03:55;17.00;99.90
39277;DHT22;63149;48.086;-1.606;2022-10-31T15:06:24;17.00;99.90
39277;DHT22;63149;48.086;-1.606;2022-10-31T15:08:52;17.00;99.90
39277;DHT22;63149;48.086;-1.606;2022-10-31T15:11:20;17.00;99.90
39277;DHT22;63149;48.086;-1.606;2022-10-31T15:13:48;16.90;99.90
39277;DHT22;63149;48.086;-1.606;2022-10-31T15:16:16;16.90;99.90
39277;DHT22;63149;48.086;-1.606;2022-10-31T15:18:47;16.90;99.90
39277;DHT22;63149;48.086;-1.606;2022-10-31T15:21:15;16.90;99.90
39277;DHT22;63149;48.086;-1.606;2022-10-31T15:23:42;16.90;99.90
39277;DHT22;63149;48.086;-1.606;2022-10-31T15:26:14;16.90;99.90
39277;DHT22;63149;48.086;-1.606;2022-10-31T15:28:42;16.80;99.90
39277;DHT22;63149;48.086;-1.606;2022-10-31T15:31:12;16.80;99.90
39277;DHT22;63149;48.086;-1.606;2022-10-31T15:33:40;16.80;99.90
39277;DHT22;63149;48.086;-1.606;2022-10-31T15:36:17;16.80;99.90
39277;DHT22;63149;48.086;-1.606;2022-10-31T15:38:44;16.70;99.90
39277;DHT22;63149;48.086;-1.606;2022-10-31T15:41:20;16.70;99.90
39277;DHT22;63149;48.086;-1.606;2022-10-31T15:43:47;16.70;99.90
39277;DHT22;63149;48.086;-1.606;2022-10-31T15:46:14;16.60;99.90
39277;DHT22;63149;48.086;-1.606;2022-10-31T15:48:43;16.60;99.90
39277;DHT22;63149;48.086;-1.606;2022-10-31T15:51:10;16.50;99.90
39277;DHT22;63149;48.086;-1.606;2022-10-31T15:53:38;16.40;99.90
39277;DHT22;63149;48.086;-1.606;2022-10-31T15:56:09;16.40;99.90
39277;DHT22;63149;48.086;-1.606;2022-10-31T15:58:41;16.20;99.90
39277;DHT22;63149;48.086;-1.606;2022-10-31T16:01:19;16.20;99.90
39277;DHT22;63149;48.086;-1.606;2022-10-31T16:03:56;16.20;99.90
39277;DHT22;63149;48.086;-1.606;2022-10-31T16:06:24;16.20;99.90
39277;DHT22;63149;48.086;-1.606;2022-10-31T16:08:50;16.10;99.90
39277;DHT22;63149;48.086;-1.606;2022-10-31T16:11:21;16.20;99.90
39277;DHT22;63149;48.086;-1.606;2022-10-31T16:13:54;16.10;99.90
39277;DHT22;63149;48.086;-1.606;2022-10-31T16:16:21;16.10;99.90
39277;DHT22;63149;48.086;-1.606;2022-10-31T16:18:48;16.10;99.90
39277;DHT22;63149;48.086;-1.606;2022-10-31T16:21:15;16.00;99.90
39277;DHT22;63149;48.086;-1.606;2022-10-31T16:23:49;16.00;99.90
39277;DHT22;63149;48.086;-1.606;2022-10-31T16:26:18;16.00;99.90
39277;DHT22;63149;48.086;-1.606;2022-10-31T16:28:50;16.00;99.90
39277;DHT22;63149;48.086;-1.606;2022-10-31T16:31:25;16.00;99.90
39277;DHT22;63149;48.086;-1.606;2022-10-31T16:34:01;16.00;99.90
39277;DHT22;63149;48.086;-1.606;2022-10-31T16:36:29;16.00;99.90
39277;DHT22;63149;48.086;-1.606;2022-10-31T16:38:56;15.90;99.90
39277;DHT22;63149;48.086;-1.606;2022-10-31T16:41:23;15.90;99.90
39277;DHT22;63149;48.086;-1.606;2022-10-31T16:43:50;16.00;99.90
39277;DHT22;63149;48.086;-1.606;2022-10-31T16:46:18;15.90;99.90
39277;DHT22;63149;48.086;-1.606;2022-10-31T16:48:48;15.90;99.90
39277;DHT22;63149;48.086;-1.606;2022-10-31T16:51:15;15.90;99.90
39277;DHT22;63149;48.086;-1.606;2022-10-31T16:53:41;15.90;99.90
39277;DHT22;63149;48.086;-1.606;2022-10-31T16:56:11;15.90;99.90
39277;DHT22;63149;48.086;-1.606;2022-10-31T16:58:40;15.90;99.90
39277;DHT22;63149;48.086;-1.606;2022-10-31T17:01:07;15.90;99.90
39277;DHT22;63149;48.086;-1.606;2022-10-31T17:03:34;15.90;99.90
39277;DHT22;63149;48.086;-1.606;2022-10-31T17:06:02;15.90;99.90
39277;DHT22;63149;48.086;-1.606;2022-10-31T17:08:29;15.90;99.90
39277;DHT22;63149;48.086;-1.606;2022-10-31T17:10:56;15.80;99.90
39277;DHT22;63149;48.086;-1.606;2022-10-31T17:13:24;15.80;99.90
39277;DHT22;63149;48.086;-1.606;2022-10-31T17:15:52;15.80;99.90
39277;DHT22;63149;48.086;-1.606;2022-10-31T17:18:19;15.80;99.90
39277;DHT22;63149;48.086;-1.606;2022-10-31T17:20:46;15.80;99.90
39277;DHT22;63149;48.086;-1.606;2022-10-31T17:23:15;15.80;99.90
39277;DHT22;63149;48.086;-1.606;2022-10-31T17:25:42;15.80;99.90
39277;DHT22;63149;48.086;-1.606;2022-10-31T17:28:10;15.80;99.90
39277;DHT22;63149;48.086;-1.606;2022-10-31T17:30:37;15.80;99.90
39277;DHT22;63149;48.086;-1.606;2022-10-31T17:33:04;15.80;99.90
39277;DHT22;63149;48.086;-1.606;2022-10-31T17:35:30;15.80;99.90
39277;DHT22;63149;48.086;-1.606;2022-10-31T17:37:57;15.80;99.90
39277;DHT22;63149;48.086;-1.606;2022-10-31T17:40:25;15.70;99.90
39277;DHT22;63149;48.086;-1.606;2022-10-31T17:42:53;15.80;99.90
39277;DHT22;63149;48.086;-1.606;2022-10-31T17:45:20;15.70;99.90
39277;DHT22;63149;48.086;-1.606;2022-10-31T17:47:47;15.70;99.90
39277;DHT22;63149;48.086;-1.606;2022-10-31T17:50:14;15.70;99.90
39277;DHT22;63149;48.086;-1.606;2022-10-31T17:52:41;15.70;99.90
39277;DHT22;63149;48.086;-1.606;2022-10-31T17:55:08;15.70;99.90
39277;DHT22;63149;48.086;-1.606;2022-10-31T17:57:36;15.70;99.90
39277;DHT22;63149;48.086;-1.606;2022-10-31T18:00:03;15.70;99.90
39277;DHT22;63149;48.086;-1.606;2022-10-31T18:02:31;15.70;99.90
39277;DHT22;63149;48.086;-1.606;2022-10-31T18:04:57;15.70;99.90
39277;DHT22;63149;48.086;-1.606;2022-10-31T18:07:26;15.60;99.90
39277;DHT22;63149;48.086;-1.606;2022-10-31T18:09:53;15.60;99.90
39277;DHT22;63149;48.086;-1.606;2022-10-31T18:12:20;15.60;99.90
39277;DHT22;63149;48.086;-1.606;2022-10-31T18:14:48;15.60;99.90
39277;DHT22;63149;48.086;-1.606;2022-10-31T18:17:14;15.60;99.90
39277;DHT22;63149;48.086;-1.606;2022-10-31T18:19:41;15.60;99.90
39277;DHT22;63149;48.086;-1.606;2022-10-31T18:22:08;15.50;99.90
39277;DHT22;63149;48.086;-1.606;2022-10-31T18:24:34;15.50;99.90
39277;DHT22;63149;48.086;-1.606;2022-10-31T18:27:01;15.50;99.90
39277;DHT22;63149;48.086;-1.606;2022-10-31T18:29:28;15.50;99.90
39277;DHT22;63149;48.086;-1.606;2022-10-31T18:31:56;15.50;99.90
39277;DHT22;63149;48.086;-1.606;2022-10-31T18:34:23;15.50;99.90
39277;DHT22;63149;48.086;-1.606;2022-10-31T18:36:49;15.40;99.90
39277;DHT22;63149;48.086;-1.606;2022-10-31T18:39:16;15.40;99.90
39277;DHT22;63149;48.086;-1.606;2022-10-31T18:41:43;15.40;99.90
39277;DHT22;63149;48.086;-1.606;2022-10-31T18:44:10;15.40;99.90
39277;DHT22;63149;48.086;-1.606;2022-10-31T18:46:37;15.40;99.90
39277;DHT22;63149;48.086;-1.606;2022-10-31T18:49:05;15.40;99.90
39277;DHT22;63149;48.086;-1.606;2022-10-31T18:51:32;15.40;99.90
39277;DHT22;63149;48.086;-1.606;2022-10-31T18:53:59;15.30;99.90
39277;DHT22;63149;48.086;-1.606;2022-10-31T18:56:27;15.30;99.90
39277;DHT22;63149;48.086;-1.606;2022-10-31T18:58:57;15.30;99.90
39277;DHT22;63149;48.086;-1.606;2022-10-31T19:01:24;15.30;99.90
39277;DHT22;63149;48.086;-1.606;2022-10-31T19:03:52;15.20;99.90
39277;DHT22;63149;48.086;-1.606;2022-10-31T19:06:21;15.20;99.90
39277;DHT22;63149;48.086;-1.606;2022-10-31T19:08:48;15.20;99.90
39277;DHT22;63149;48.086;-1.606;2022-10-31T19:11:14;15.20;99.90
39277;DHT22;63149;48.086;-1.606;2022-10-31T19:13:41;15.20;99.90
39277;DHT22;63149;48.086;-1.606;2022-10-31T19:16:09;15.20;99.90
39277;DHT22;63149;48.086;-1.606;2022-10-31T19:18:36;15.20;99.90
39277;DHT22;63149;48.086;-1.606;2022-10-31T19:21:06;15.20;99.90
39277;DHT22;63149;48.086;-1.606;2022-10-31T19:23:34;15.20;99.90
39277;DHT22;63149;48.086;-1.606;2022-10-31T19:26:01;15.10;99.90
39277;DHT22;63149;48.086;-1.606;2022-10-31T19:28:28;15.10;99.90
39277;DHT22;63149;48.086;-1.606;2022-10-31T19:30:54;15.00;99.90
39277;DHT22;63149;48.086;-1.606;2022-10-31T19:33:21;15.00;99.90
39277;DHT22;63149;48.086;-1.606;2022-10-31T19:35:50;15.00;99.90
39277;DHT22;63149;48.086;-1.606;2022-10-31T19:38:17;14.90;99.90
39277;DHT22;63149;48.086;-1.606;2022-10-31T19:40:45;14.90;99.90
39277;DHT22;63149;48.086;-1.606;2022-10-31T19:43:12;14.80;99.90
39277;DHT22;63149;48.086;-1.606;2022-10-31T19:45:39;14.80;99.90
39277;DHT22;63149;48.086;-1.606;2022-10-31T19:48:05;14.70;99.90
39277;DHT22;63149;48.086;-1.606;2022-10-31T19:50:32;14.70;99.90
39277;DHT22;63149;48.086;-1.606;2022-10-31T19:52:59;14.70;99.90
39277;DHT22;63149;48.086;-1.606;2022-10-31T19:55:26;14.70;99.90
39277;DHT22;63149;48.086;-1.606;2022-10-31T19:57:54;14.60;99.90
39277;DHT22;63149;48.086;-1.606;2022-10-31T20:00:20;14.60;99.90
39277;DHT22;63149;48.086;-1.606;2022-10-31T20:02:47;14.60;99.90
39277;DHT22;63149;48.086;-1.606;2022-10-31T20:05:14;14.60;99.90
39277;DHT22;63149;48.086;-1.606;2022-10-31T20:07:41;14.50;99.90
39277;DHT22;63149;48.086;-1.606;2022-10-31T20:10:07;14.50;99.90
39277;DHT22;63149;48.086;-1.606;2022-10-31T20:12:34;14.40;99.90
39277;DHT22;63149;48.086;-1.606;2022-10-31T20:15:02;14.40;99.90
39277;DHT22;63149;48.086;-1.606;2022-10-31T20:17:29;14.40;99.90
39277;DHT22;63149;48.086;-1.606;2022-10-31T20:19:56;14.40;99.90
39277;DHT22;63149;48.086;-1.606;2022-10-31T20:22:23;14.40;99.90
39277;DHT22;63149;48.086;-1.606;2022-10-31T20:24:49;14.30;99.90
39277;DHT22;63149;48.086;-1.606;2022-10-31T20:27:16;14.30;99.90
39277;DHT22;63149;48.086;-1.606;2022-10-31T20:29:43;14.30;99.90
39277;DHT22;63149;48.086;-1.606;2022-10-31T20:32:11;14.30;99.90
39277;DHT22;63149;48.086;-1.606;2022-10-31T20:34:38;14.30;99.90
39277;DHT22;63149;48.086;-1.606;2022-10-31T20:37:04;14.30;99.90
39277;DHT22;63149;48.086;-1.606;2022-10-31T20:39:31;14.20;99.90
39277;DHT22;63149;48.086;-1.606;2022-10-31T20:42:00;14.20;99.90
39277;DHT22;63149;48.086;-1.606;2022-10-31T20:44:27;14.20;99.90
39277;DHT22;63149;48.086;-1.606;2022-10-31T20:46:54;14.20;99.90
39277;DHT22;63149;48.086;-1.606;2022-10-31T20:49:22;14.10;99.90
39277;DHT22;63149;48.086;-1.606;2022-10-31T20:51:49;14.10;99.90
39277;DHT22;63149;48.086;-1.606;2022-10-31T20:54:16;14.00;99.90
39277;DHT22;63149;48.086;-1.606;2022-10-31T20:56:44;14.00;99.90
39277;DHT22;63149;48.086;-1.606;2022-10-31T20:59:11;13.90;99.90
39277;DHT22;63149;48.086;-1.606;2022-10-31T21:01:39;13.90;99.90
39277;DHT22;63149;48.086;-1.606;2022-10-31T21:04:06;13.90;99.90
39277;DHT22;63149;48.086;-1.606;2022-10-31T21:06:37;13.80;99.90
39277;DHT22;63149;48.086;-1.606;2022-10-31T21:09:04;13.80;99.90
39277;DHT22;63149;48.086;-1.606;2022-10-31T21:11:31;13.80;99.90
39277;DHT22;63149;48.086;-1.606;2022-10-31T21:13:59;13.80;99.90
39277;DHT22;63149;48.086;-1.606;2022-10-31T21:16:27;13.70;99.90
39277;DHT22;63149;48.086;-1.606;2022-10-31T21:18:55;13.70;99.90
39277;DHT22;63149;48.086;-1.606;2022-10-31T21:21:23;13.70;99.90
39277;DHT22;63149;48.086;-1.606;2022-10-31T21:23:53;13.60;99.90
39277;DHT22;63149;48.086;-1.606;2022-10-31T21:26:21;13.50;99.90
39277;DHT22;63149;48.086;-1.606;2022-10-31T21:28:48;13.50;99.90
39277;DHT22;63149;48.086;-1.606;2022-10-31T21:31:16;13.50;99.90
39277;DHT22;63149;48.086;-1.606;2022-10-31T21:33:43;13.40;99.90
39277;DHT22;63149;48.086;-1.606;2022-10-31T21:36:10;13.40;99.90